sensor_id;sensor_type;location;lat;lon;timestamp;pressure;altitude;pressure_sealevel;temperature;humidity
19811;BME280;10065;49.632;8.346;2023-03-16T00:00:44;101098.22;;;4.76;69.62
19811;BME280;10065;49.632;8.346;2023-03-16T00:03:13;101104.78;;;4.69;69.94
19811;BME280;10065;49.632;8.346;2023-03-16T00:05:44;101101.72;;;4.63;70.05
19811;BME280;10065;49.632;8.346;2023-03-16T00:08:13;101102.72;;;4.60;70.05
19811;BME280;10065;49.632;8.346;2023-03-16T00:10:41;101097.47;;;4.60;70.22
19811;BME280;10065;49.632;8.346;2023-03-16T00:13:12;101101.63;;;4.64;70.09
19811;BME280;10065;49.632;8.346;2023-03-16T00:15:40;101087.19;;;4.57;70.25
19811;BME280;10065;49.632;8.346;2023-03-16T00:18:08;101097.78;;;4.56;70.30
19811;BME280;10065;49.632;8.346;2023-03-16T00:20:37;101094.38;;;4.53;70.34
19811;BME280;10065;49.632;8.346;2023-03-16T00:23:05;101097.50;;;4.46;70.27
19811;BME280;10065;49.632;8.346;2023-03-16T00:25:33;101103.75;;;4.43;70.46
19811;BME280;10065;49.632;8.346;2023-03-16T00:28:00;101100.13;;;4.46;70.57
19811;BME280;10065;49.632;8.346;2023-03-16T00:30:29;101107.22;;;4.58;69.96
19811;BME280;10065;49.632;8.346;2023-03-16T00:32:56;101107.78;;;4.49;70.27
19811;BME280;10065;49.632;8.346;2023-03-16T00:35:24;101107.06;;;4.47;70.36
19811;BME280;10065;49.632;8.346;2023-03-16T00:37:53;101096.81;;;4.42;70.54
19811;BME280;10065;49.632;8.346;2023-03-16T00:40:22;101095.88;;;4.43;70.49
19811;BME280;10065;49.632;8.346;2023-03-16T00:42:50;101092.72;;;4.38;70.50
19811;BME280;10065;49.632;8.346;2023-03-16T00:45:20;101098.31;;;4.32;70.48
19811;BME280;10065;49.632;8.346;2023-03-16T00:47:48;101096.91;;;4.27;70.64
19811;BME280;10065;49.632;8.346;2023-03-16T00:50:19;101098.03;;;4.23;70.64
19811;BME280;10065;49.632;8.346;2023-03-16T00:52:47;101100.00;;;4.19;70.78
19811;BME280;10065;49.632;8.346;2023-03-16T00:55:20;101091.84;;;4.24;70.72
19811;BME280;10065;49.632;8.346;2023-03-16T00:57:48;101082.09;;;4.26;70.34
19811;BME280;10065;49.632;8.346;2023-03-16T01:00:16;101090.16;;;4.23;70.40
19811;BME280;10065;49.632;8.346;2023-03-16T01:02:46;101085.09;;;4.34;69.94
19811;BME280;10065;49.632;8.346;2023-03-16T01:05:14;101080.06;;;4.31;69.83
19811;BME280;10065;49.632;8.346;2023-03-16T01:07:41;101075.53;;;4.33;70.02
19811;BME280;10065;49.632;8.346;2023-03-16T01:10:11;101074.41;;;4.51;69.26
19811;BME280;10065;49.632;8.346;2023-03-16T01:12:40;101068.22;;;4.38;69.45
19811;BME280;10065;49.632;8.346;2023-03-16T01:15:11;101073.84;;;4.32;69.96
19811;BME280;10065;49.632;8.346;2023-03-16T01:17:38;101076.09;;;4.24;70.29
19811;BME280;10065;49.632;8.346;2023-03-16T01:20:08;101075.72;;;4.15;70.51
19811;BME280;10065;49.632;8.346;2023-03-16T01:22:38;101080.66;;;4.06;70.78
19811;BME280;10065;49.632;8.346;2023-03-16T01:25:09;101083.41;;;4.04;70.98
19811;BME280;10065;49.632;8.346;2023-03-16T01:27:37;101078.41;;;4.00;71.00
19811;BME280;10065;49.632;8.346;2023-03-16T01:30:08;101081.50;;;3.92;71.09
19811;BME280;10065;49.632;8.346;2023-03-16T01:32:38;101079.25;;;3.86;71.27
19811;BME280;10065;49.632;8.346;2023-03-16T01:35:06;101087.84;;;3.88;71.11
19811;BME280;10065;49.632;8.346;2023-03-16T01:37:34;101081.81;;;4.02;70.45
19811;BME280;10065;49.632;8.346;2023-03-16T01:40:03;101070.75;;;4.11;69.93
19811;BME280;10065;49.632;8.346;2023-03-16T01:42:43;101074.78;;;4.02;70.09
19811;BME280;10065;49.632;8.346;2023-03-16T01:48:13;101069.69;;;3.85;70.62
19811;BME280;10065;49.632;8.346;2023-03-16T01:50:41;101063.69;;;3.83;70.75
19811;BME280;10065;49.632;8.346;2023-03-16T01:53:09;101056.19;;;3.91;70.65
19811;BME280;10065;49.632;8.346;2023-03-16T01:55:37;101058.66;;;3.94;70.26
19811;BME280;10065;49.632;8.346;2023-03-16T01:58:05;101061.81;;;3.85;70.47
19811;BME280;10065;49.632;8.346;2023-03-16T02:00:32;101059.72;;;3.76;70.92
19811;BME280;10065;49.632;8.346;2023-03-16T02:03:04;101055.50;;;3.73;70.93
19811;BME280;10065;49.632;8.346;2023-03-16T02:05:40;101053.56;;;3.77;71.09
19811;BME280;10065;49.632;8.346;2023-03-16T02:08:10;101047.72;;;3.72;71.08
19811;BME280;10065;49.632;8.346;2023-03-16T02:10:39;101037.06;;;3.89;70.63
19811;BME280;10065;49.632;8.346;2023-03-16T02:13:07;101043.44;;;4.13;69.44
19811;BME280;10065;49.632;8.346;2023-03-16T02:15:35;101034.66;;;4.29;68.47
19811;BME280;10065;49.632;8.346;2023-03-16T02:18:03;101029.31;;;4.30;68.08
19811;BME280;10065;49.632;8.346;2023-03-16T02:20:38;101031.47;;;4.09;69.30
19811;BME280;10065;49.632;8.346;2023-03-16T02:23:11;101025.56;;;3.92;70.15
19811;BME280;10065;49.632;8.346;2023-03-16T02:25:48;101021.31;;;3.89;70.68
19811;BME280;10065;49.632;8.346;2023-03-16T02:28:24;101013.19;;;3.94;70.56
19811;BME280;10065;49.632;8.346;2023-03-16T02:30:56;101017.97;;;4.01;70.22
19811;BME280;10065;49.632;8.346;2023-03-16T02:33:25;101005.03;;;4.12;69.65
19811;BME280;10065;49.632;8.346;2023-03-16T02:35:52;101014.78;;;4.25;69.01
19811;BME280;10065;49.632;8.346;2023-03-16T02:38:20;101017.41;;;4.10;69.35
19811;BME280;10065;49.632;8.346;2023-03-16T02:40:55;101023.47;;;3.97;69.98
19811;BME280;10065;49.632;8.346;2023-03-16T02:43:26;101025.25;;;3.82;70.44
19811;BME280;10065;49.632;8.346;2023-03-16T02:45:58;101023.47;;;3.68;70.79
19811;BME280;10065;49.632;8.346;2023-03-16T02:48:31;101020.00;;;3.68;70.96
19811;BME280;10065;49.632;8.346;2023-03-16T02:50:59;101024.09;;;3.58;71.36
19811;BME280;10065;49.632;8.346;2023-03-16T02:53:27;101015.09;;;3.62;71.34
19811;BME280;10065;49.632;8.346;2023-03-16T02:55:55;101006.13;;;3.66;71.77
19811;BME280;10065;49.632;8.346;2023-03-16T02:58:22;101006.34;;;3.91;70.55
19811;BME280;10065;49.632;8.346;2023-03-16T03:00:50;101000.53;;;4.00;70.23
19811;BME280;10065;49.632;8.346;2023-03-16T03:03:19;101001.56;;;3.98;70.31
19811;BME280;10065;49.632;8.346;2023-03-16T03:05:48;101000.78;;;3.82;70.84
19811;BME280;10065;49.632;8.346;2023-03-16T03:08:16;100994.72;;;3.81;71.29
19811;BME280;10065;49.632;8.346;2023-03-16T03:10:45;100997.25;;;3.83;71.15
19811;BME280;10065;49.632;8.346;2023-03-16T03:13:13;100991.31;;;3.79;70.99
19811;BME280;10065;49.632;8.346;2023-03-16T03:15:41;100990.84;;;3.72;71.24
19811;BME280;10065;49.632;8.346;2023-03-16T03:18:08;100989.53;;;3.65;71.63
19811;BME280;10065;49.632;8.346;2023-03-16T03:20:37;100992.53;;;3.59;71.71
19811;BME280;10065;49.632;8.346;2023-03-16T03:23:05;100986.53;;;3.57;72.14
19811;BME280;10065;49.632;8.346;2023-03-16T03:25:33;100991.09;;;3.54;72.34
19811;BME280;10065;49.632;8.346;2023-03-16T03:28:01;100989.72;;;3.62;71.70
19811;BME280;10065;49.632;8.346;2023-03-16T03:30:31;100988.22;;;3.72;71.80
19811;BME280;10065;49.632;8.346;2023-03-16T03:32:58;100981.41;;;3.84;71.08
19811;BME280;10065;49.632;8.346;2023-03-16T03:35:27;100975.03;;;3.74;71.43
19811;BME280;10065;49.632;8.346;2023-03-16T03:37:56;100970.72;;;3.73;71.83
19811;BME280;10065;49.632;8.346;2023-03-16T03:40:23;100975.97;;;3.73;71.76
19811;BME280;10065;49.632;8.346;2023-03-16T03:42:51;100974.81;;;3.63;71.99
19811;BME280;10065;49.632;8.346;2023-03-16T03:45:19;100977.72;;;3.58;72.18
19811;BME280;10065;49.632;8.346;2023-03-16T03:47:47;100975.38;;;3.54;72.23
19811;BME280;10065;49.632;8.346;2023-03-16T03:50:15;100981.75;;;3.50;72.33
19811;BME280;10065;49.632;8.346;2023-03-16T03:52:43;100963.66;;;3.45;72.88
19811;BME280;10065;49.632;8.346;2023-03-16T03:55:12;100971.16;;;3.51;72.83
19811;BME280;10065;49.632;8.346;2023-03-16T03:57:40;100965.06;;;3.51;72.49
19811;BME280;10065;49.632;8.346;2023-03-16T04:00:09;100978.38;;;3.48;72.48
19811;BME280;10065;49.632;8.346;2023-03-16T04:02:37;100969.19;;;3.55;71.97
19811;BME280;10065;49.632;8.346;2023-03-16T04:05:06;100975.56;;;3.51;72.28
19811;BME280;10065;49.632;8.346;2023-03-16T04:07:34;100971.34;;;3.48;72.19
19811;BME280;10065;49.632;8.346;2023-03-16T04:10:01;100979.28;;;3.47;72.36
19811;BME280;10065;49.632;8.346;2023-03-16T04:12:31;100968.97;;;3.44;72.54
19811;BME280;10065;49.632;8.346;2023-03-16T04:14:58;100966.72;;;3.37;72.97
19811;BME280;10065;49.632;8.346;2023-03-16T04:17:26;100976.28;;;3.38;72.87
19811;BME280;10065;49.632;8.346;2023-03-16T04:19:54;100972.72;;;3.39;72.81
19811;BME280;10065;49.632;8.346;2023-03-16T04:22:21;100977.97;;;3.39;72.78
19811;BME280;10065;49.632;8.346;2023-03-16T04:24:49;100985.75;;;3.41;73.02
19811;BME280;10065;49.632;8.346;2023-03-16T04:27:20;100979.81;;;3.37;73.31
19811;BME280;10065;49.632;8.346;2023-03-16T04:29:49;100982.00;;;3.45;73.10
19811;BME280;10065;49.632;8.346;2023-03-16T04:32:21;100976.50;;;3.50;72.77
19811;BME280;10065;49.632;8.346;2023-03-16T04:34:51;100972.94;;;3.51;72.66
19811;BME280;10065;49.632;8.346;2023-03-16T04:37:21;100972.19;;;3.49;73.17
19811;BME280;10065;49.632;8.346;2023-03-16T04:39:49;100983.78;;;3.45;73.40
19811;BME280;10065;49.632;8.346;2023-03-16T04:42:17;100987.44;;;3.42;73.46
19811;BME280;10065;49.632;8.346;2023-03-16T04:44:45;100984.69;;;3.44;73.75
19811;BME280;10065;49.632;8.346;2023-03-16T04:47:15;100984.53;;;3.47;73.41
19811;BME280;10065;49.632;8.346;2023-03-16T04:49:43;100977.91;;;3.55;73.35
19811;BME280;10065;49.632;8.346;2023-03-16T04:52:12;100972.31;;;3.75;72.18
19811;BME280;10065;49.632;8.346;2023-03-16T04:54:39;100982.00;;;4.03;70.76
19811;BME280;10065;49.632;8.346;2023-03-16T04:57:07;100980.66;;;4.10;70.17
19811;BME280;10065;49.632;8.346;2023-03-16T04:59:35;100972.44;;;4.02;70.50
19811;BME280;10065;49.632;8.346;2023-03-16T05:02:03;100970.94;;;4.12;70.16
19811;BME280;10065;49.632;8.346;2023-03-16T05:04:32;100962.28;;;4.10;69.99
19811;BME280;10065;49.632;8.346;2023-03-16T05:06:59;100968.66;;;4.06;69.95
19811;BME280;10065;49.632;8.346;2023-03-16T05:09:27;100963.81;;;3.86;70.71
19811;BME280;10065;49.632;8.346;2023-03-16T05:11:55;100958.75;;;3.69;71.56
19811;BME280;10065;49.632;8.346;2023-03-16T05:14:23;100962.09;;;3.57;72.41
19811;BME280;10065;49.632;8.346;2023-03-16T05:16:51;100958.78;;;3.53;72.59
19811;BME280;10065;49.632;8.346;2023-03-16T05:19:19;100963.72;;;3.44;72.64
19811;BME280;10065;49.632;8.346;2023-03-16T05:21:48;100962.06;;;3.43;72.94
19811;BME280;10065;49.632;8.346;2023-03-16T05:24:15;100962.53;;;3.49;72.49
19811;BME280;10065;49.632;8.346;2023-03-16T05:26:43;100965.25;;;3.48;72.84
19811;BME280;10065;49.632;8.346;2023-03-16T05:29:11;100956.38;;;3.50;72.60
19811;BME280;10065;49.632;8.346;2023-03-16T05:31:38;100955.06;;;3.57;72.65
19811;BME280;10065;49.632;8.346;2023-03-16T05:34:06;100952.53;;;3.56;72.60
19811;BME280;10065;49.632;8.346;2023-03-16T05:36:34;100949.06;;;3.69;71.99
19811;BME280;10065;49.632;8.346;2023-03-16T05:39:03;100960.03;;;3.76;71.49
19811;BME280;10065;49.632;8.346;2023-03-16T05:41:33;100950.56;;;3.73;71.60
19811;BME280;10065;49.632;8.346;2023-03-16T05:44:02;100946.91;;;3.62;71.72
19811;BME280;10065;49.632;8.346;2023-03-16T05:46:30;100946.53;;;3.54;72.80
19811;BME280;10065;49.632;8.346;2023-03-16T05:48:58;100942.41;;;3.64;72.68
19811;BME280;10065;49.632;8.346;2023-03-16T05:51:26;100937.34;;;3.61;72.76
19811;BME280;10065;49.632;8.346;2023-03-16T05:53:54;100942.72;;;3.73;72.38
19811;BME280;10065;49.632;8.346;2023-03-16T05:56:25;100930.81;;;3.68;72.55
19811;BME280;10065;49.632;8.346;2023-03-16T05:58:54;100934.53;;;3.64;72.72
19811;BME280;10065;49.632;8.346;2023-03-16T06:01:22;100932.88;;;3.77;72.43
19811;BME280;10065;49.632;8.346;2023-03-16T06:03:51;100931.66;;;3.83;72.28
19811;BME280;10065;49.632;8.346;2023-03-16T06:06:20;100915.88;;;3.97;71.31
19811;BME280;10065;49.632;8.346;2023-03-16T06:08:48;100913.38;;;3.81;72.14
19811;BME280;10065;49.632;8.346;2023-03-16T06:11:16;100915.09;;;3.68;72.48
19811;BME280;10065;49.632;8.346;2023-03-16T06:13:45;100914.59;;;3.61;72.99
19811;BME280;10065;49.632;8.346;2023-03-16T06:16:13;100923.50;;;3.59;73.36
19811;BME280;10065;49.632;8.346;2023-03-16T06:18:42;100927.31;;;3.53;73.53
19811;BME280;10065;49.632;8.346;2023-03-16T06:21:10;100939.41;;;3.56;73.86
19811;BME280;10065;49.632;8.346;2023-03-16T06:23:37;100933.06;;;3.60;73.59
19811;BME280;10065;49.632;8.346;2023-03-16T06:26:05;100930.31;;;3.61;73.49
19811;BME280;10065;49.632;8.346;2023-03-16T06:28:33;100928.75;;;3.73;73.17
19811;BME280;10065;49.632;8.346;2023-03-16T06:31:02;100939.44;;;3.84;72.66
19811;BME280;10065;49.632;8.346;2023-03-16T06:33:29;100942.06;;;3.84;73.08
19811;BME280;10065;49.632;8.346;2023-03-16T06:35:57;100946.19;;;4.02;72.89
19811;BME280;10065;49.632;8.346;2023-03-16T06:38:25;100948.34;;;3.96;72.88
19811;BME280;10065;49.632;8.346;2023-03-16T06:40:53;100951.59;;;3.99;72.82
19811;BME280;10065;49.632;8.346;2023-03-16T06:43:21;100942.97;;;3.97;72.62
19811;BME280;10065;49.632;8.346;2023-03-16T06:45:49;100948.44;;;3.94;72.71
19811;BME280;10065;49.632;8.346;2023-03-16T06:48:18;100951.06;;;3.94;73.10
19811;BME280;10065;49.632;8.346;2023-03-16T06:50:46;100953.13;;;4.03;73.34
19811;BME280;10065;49.632;8.346;2023-03-16T06:53:14;100955.91;;;4.14;73.26
19811;BME280;10065;49.632;8.346;2023-03-16T06:55:42;100947.44;;;4.38;72.34
19811;BME280;10065;49.632;8.346;2023-03-16T06:58:10;100949.84;;;4.55;71.86
19811;BME280;10065;49.632;8.346;2023-03-16T07:00:38;100949.88;;;4.68;71.33
19811;BME280;10065;49.632;8.346;2023-03-16T07:03:06;100939.84;;;4.74;71.07
19811;BME280;10065;49.632;8.346;2023-03-16T07:05:35;100932.06;;;4.73;71.74
19811;BME280;10065;49.632;8.346;2023-03-16T07:08:03;100939.69;;;4.90;70.86
19811;BME280;10065;49.632;8.346;2023-03-16T07:10:31;100940.19;;;4.95;70.92
19811;BME280;10065;49.632;8.346;2023-03-16T07:12:59;100941.78;;;4.98;70.92
19811;BME280;10065;49.632;8.346;2023-03-16T07:15:27;100939.06;;;4.99;71.02
19811;BME280;10065;49.632;8.346;2023-03-16T07:17:55;100941.16;;;4.94;71.47
19811;BME280;10065;49.632;8.346;2023-03-16T07:20:23;100946.22;;;4.97;71.45
19811;BME280;10065;49.632;8.346;2023-03-16T07:22:55;100945.19;;;5.00;71.42
19811;BME280;10065;49.632;8.346;2023-03-16T07:25:24;100953.41;;;5.08;70.96
19811;BME280;10065;49.632;8.346;2023-03-16T07:27:51;100952.78;;;5.17;70.79
19811;BME280;10065;49.632;8.346;2023-03-16T07:30:19;100951.09;;;5.16;70.85
19811;BME280;10065;49.632;8.346;2023-03-16T07:32:47;100958.47;;;5.23;71.12
19811;BME280;10065;49.632;8.346;2023-03-16T07:35:16;100959.00;;;5.28;71.05
19811;BME280;10065;49.632;8.346;2023-03-16T07:37:44;100955.56;;;5.41;70.99
19811;BME280;10065;49.632;8.346;2023-03-16T07:40:16;100952.94;;;5.53;70.48
19811;BME280;10065;49.632;8.346;2023-03-16T07:42:45;100955.91;;;5.61;70.31
19811;BME280;10065;49.632;8.346;2023-03-16T07:45:14;100955.13;;;5.72;69.63
19811;BME280;10065;49.632;8.346;2023-03-16T07:47:44;100948.00;;;5.87;68.92
19811;BME280;10065;49.632;8.346;2023-03-16T07:50:13;100950.78;;;5.98;69.03
19811;BME280;10065;49.632;8.346;2023-03-16T07:52:43;100951.78;;;6.08;68.19
19811;BME280;10065;49.632;8.346;2023-03-16T07:55:13;100948.44;;;6.06;68.65
19811;BME280;10065;49.632;8.346;2023-03-16T07:57:42;100950.84;;;6.09;68.60
19811;BME280;10065;49.632;8.346;2023-03-16T08:00:14;100951.25;;;6.16;68.35
19811;BME280;10065;49.632;8.346;2023-03-16T08:02:42;100947.34;;;6.21;67.73
19811;BME280;10065;49.632;8.346;2023-03-16T08:05:12;100955.03;;;6.24;67.72
19811;BME280;10065;49.632;8.346;2023-03-16T08:07:41;100950.47;;;6.26;67.76
19811;BME280;10065;49.632;8.346;2023-03-16T08:10:10;100956.66;;;6.51;66.66
19811;BME280;10065;49.632;8.346;2023-03-16T08:12:39;100946.63;;;6.56;66.35
19811;BME280;10065;49.632;8.346;2023-03-16T08:15:09;100947.41;;;6.69;66.15
19811;BME280;10065;49.632;8.346;2023-03-16T08:17:38;100944.38;;;6.86;65.62
19811;BME280;10065;49.632;8.346;2023-03-16T08:20:08;100941.56;;;7.00;65.54
19811;BME280;10065;49.632;8.346;2023-03-16T08:22:39;100943.22;;;7.25;65.11
19811;BME280;10065;49.632;8.346;2023-03-16T08:25:13;100938.75;;;7.61;63.88
19811;BME280;10065;49.632;8.346;2023-03-16T08:27:45;100946.66;;;8.27;61.96
19811;BME280;10065;49.632;8.346;2023-03-16T08:30:15;100939.59;;;9.76;58.53
19811;BME280;10065;49.632;8.346;2023-03-16T08:32:43;100937.91;;;11.90;50.86
19811;BME280;10065;49.632;8.346;2023-03-16T08:35:13;100936.38;;;13.05;46.62
19811;BME280;10065;49.632;8.346;2023-03-16T08:37:42;100924.47;;;13.27;45.22
19811;BME280;10065;49.632;8.346;2023-03-16T08:40:12;100921.78;;;13.09;45.59
19811;BME280;10065;49.632;8.346;2023-03-16T08:42:41;100919.97;;;12.92;45.85
19811;BME280;10065;49.632;8.346;2023-03-16T08:45:12;100918.22;;;12.83;45.97
19811;BME280;10065;49.632;8.346;2023-03-16T08:47:40;100905.44;;;12.87;46.20
19811;BME280;10065;49.632;8.346;2023-03-16T08:50:09;100910.38;;;12.64;47.49
19811;BME280;10065;49.632;8.346;2023-03-16T08:52:39;100903.59;;;12.69;46.28
19811;BME280;10065;49.632;8.346;2023-03-16T08:55:09;100913.25;;;13.06;45.32
19811;BME280;10065;49.632;8.346;2023-03-16T08:57:37;100911.59;;;13.23;44.73
19811;BME280;10065;49.632;8.346;2023-03-16T09:00:06;100910.16;;;13.80;43.73
19811;BME280;10065;49.632;8.346;2023-03-16T09:02:40;100911.72;;;15.15;41.53
19811;BME280;10065;49.632;8.346;2023-03-16T09:05:09;100911.91;;;16.17;39.33
19811;BME280;10065;49.632;8.346;2023-03-16T09:07:38;100908.47;;;16.32;38.50
19811;BME280;10065;49.632;8.346;2023-03-16T09:10:06;100904.56;;;17.56;36.79
19811;BME280;10065;49.632;8.346;2023-03-16T09:12:38;100909.47;;;19.20;34.32
19811;BME280;10065;49.632;8.346;2023-03-16T09:15:10;100903.03;;;21.59;30.69
19811;BME280;10065;49.632;8.346;2023-03-16T09:17:41;100897.81;;;21.77;30.08
19811;BME280;10065;49.632;8.346;2023-03-16T09:20:11;100899.34;;;22.31;29.37
19811;BME280;10065;49.632;8.346;2023-03-16T09:22:51;100894.91;;;23.37;27.74
19811;BME280;10065;49.632;8.346;2023-03-16T09:25:20;100892.66;;;23.59;27.23
19811;BME280;10065;49.632;8.346;2023-03-16T09:27:48;100885.56;;;24.01;27.26
19811;BME280;10065;49.632;8.346;2023-03-16T09:30:17;100874.47;;;23.84;26.95
19811;BME280;10065;49.632;8.346;2023-03-16T09:32:47;100877.59;;;22.88;27.88
19811;BME280;10065;49.632;8.346;2023-03-16T09:35:16;100879.66;;;22.10;29.00
19811;BME280;10065;49.632;8.346;2023-03-16T09:37:45;100884.25;;;20.58;30.41
19811;BME280;10065;49.632;8.346;2023-03-16T09:40:31;100885.13;;;20.18;31.51
19811;BME280;10065;49.632;8.346;2023-03-16T09:43:11;100877.78;;;19.64;32.33
19811;BME280;10065;49.632;8.346;2023-03-16T09:45:48;100884.53;;;19.53;32.32
19811;BME280;10065;49.632;8.346;2023-03-16T09:48:22;100881.44;;;19.29;32.93
19811;BME280;10065;49.632;8.346;2023-03-16T09:50:52;100880.19;;;20.21;31.78
19811;BME280;10065;49.632;8.346;2023-03-16T09:53:25;100874.63;;;21.36;30.32
19811;BME280;10065;49.632;8.346;2023-03-16T09:55:57;100876.75;;;23.44;27.98
19811;BME280;10065;49.632;8.346;2023-03-16T09:58:27;100865.06;;;24.42;26.79
19811;BME280;10065;49.632;8.346;2023-03-16T10:04:56;100847.22;;;25.52;25.26
19811;BME280;10065;49.632;8.346;2023-03-16T10:07:36;100837.09;;;25.13;25.28
19811;BME280;10065;49.632;8.346;2023-03-16T10:10:20;100838.16;;;24.70;25.84
19811;BME280;10065;49.632;8.346;2023-03-16T10:13:16;100837.66;;;25.03;25.42
19811;BME280;10065;49.632;8.346;2023-03-16T10:15:47;100838.56;;;25.90;23.48
19811;BME280;10065;49.632;8.346;2023-03-16T10:18:27;100834.41;;;26.11;23.34
19811;BME280;10065;49.632;8.346;2023-03-16T10:21:01;100827.19;;;25.06;23.92
19811;BME280;10065;49.632;8.346;2023-03-16T10:23:31;100828.38;;;24.39;24.26
19811;BME280;10065;49.632;8.346;2023-03-16T10:26:02;100837.88;;;24.12;24.99
19811;BME280;10065;49.632;8.346;2023-03-16T10:28:32;100829.28;;;24.63;24.58
19811;BME280;10065;49.632;8.346;2023-03-16T10:31:00;100840.94;;;24.52;24.65
19811;BME280;10065;49.632;8.346;2023-03-16T10:33:31;100834.97;;;25.15;23.84
19811;BME280;10065;49.632;8.346;2023-03-16T10:36:03;100838.25;;;25.75;23.04
19811;BME280;10065;49.632;8.346;2023-03-16T10:38:41;100837.13;;;25.59;23.33
19811;BME280;10065;49.632;8.346;2023-03-16T10:41:22;100838.50;;;24.73;24.28
19811;BME280;10065;49.632;8.346;2023-03-16T10:43:53;100833.13;;;24.44;24.67
19811;BME280;10065;49.632;8.346;2023-03-16T10:46:24;100832.25;;;25.49;23.83
19811;BME280;10065;49.632;8.346;2023-03-16T10:48:54;100825.38;;;25.35;23.68
19811;BME280;10065;49.632;8.346;2023-03-16T10:51:28;100823.09;;;23.96;25.14
19811;BME280;10065;49.632;8.346;2023-03-16T10:54:05;100821.59;;;22.64;26.65
19811;BME280;10065;49.632;8.346;2023-03-16T10:56:36;100832.00;;;22.29;27.48
19811;BME280;10065;49.632;8.346;2023-03-16T10:59:14;100825.44;;;22.50;26.54
19811;BME280;10065;49.632;8.346;2023-03-16T11:01:44;100828.75;;;21.10;27.99
19811;BME280;10065;49.632;8.346;2023-03-16T11:04:14;100828.38;;;20.13;28.98
19811;BME280;10065;49.632;8.346;2023-03-16T11:06:52;100834.34;;;19.39;30.56
19811;BME280;10065;49.632;8.346;2023-03-16T11:09:23;100826.91;;;19.35;30.46
19811;BME280;10065;49.632;8.346;2023-03-16T11:11:53;100824.31;;;18.71;31.79
19811;BME280;10065;49.632;8.346;2023-03-16T11:14:24;100815.75;;;18.25;32.76
19811;BME280;10065;49.632;8.346;2023-03-16T11:16:59;100809.94;;;18.42;32.50
19811;BME280;10065;49.632;8.346;2023-03-16T11:19:31;100806.75;;;18.54;31.61
19811;BME280;10065;49.632;8.346;2023-03-16T11:22:07;100810.47;;;18.17;31.78
19811;BME280;10065;49.632;8.346;2023-03-16T11:24:44;100804.94;;;17.67;33.27
19811;BME280;10065;49.632;8.346;2023-03-16T11:27:19;100796.19;;;17.51;33.66
19811;BME280;10065;49.632;8.346;2023-03-16T11:29:59;100799.56;;;16.86;34.78
19811;BME280;10065;49.632;8.346;2023-03-16T11:32:33;100798.25;;;16.05;36.28
19811;BME280;10065;49.632;8.346;2023-03-16T11:35:11;100797.81;;;15.55;36.86
19811;BME280;10065;49.632;8.346;2023-03-16T11:37:50;100798.88;;;15.05;38.27
19811;BME280;10065;49.632;8.346;2023-03-16T11:40:31;100800.75;;;14.56;38.96
19811;BME280;10065;49.632;8.346;2023-03-16T11:43:15;100796.81;;;14.26;39.66
19811;BME280;10065;49.632;8.346;2023-03-16T11:45:49;100798.75;;;13.91;40.20
19811;BME280;10065;49.632;8.346;2023-03-16T11:48:28;100786.44;;;13.56;41.30
19811;BME280;10065;49.632;8.346;2023-03-16T11:51:05;100790.03;;;13.81;40.99
19811;BME280;10065;49.632;8.346;2023-03-16T11:53:48;100775.50;;;14.26;40.38
19811;BME280;10065;49.632;8.346;2023-03-16T11:56:25;100775.03;;;15.12;38.72
19811;BME280;10065;49.632;8.346;2023-03-16T11:59:24;100759.69;;;16.23;37.64
19811;BME280;10065;49.632;8.346;2023-03-16T12:02:15;100753.97;;;17.23;35.46
19811;BME280;10065;49.632;8.346;2023-03-16T12:04:55;100746.97;;;17.88;34.31
19811;BME280;10065;49.632;8.346;2023-03-16T12:07:38;100746.09;;;18.59;33.42
19811;BME280;10065;49.632;8.346;2023-03-16T12:10:21;100740.31;;;19.18;31.87
19811;BME280;10065;49.632;8.346;2023-03-16T12:13:22;100745.50;;;18.92;32.29
19811;BME280;10065;49.632;8.346;2023-03-16T12:15:59;100747.94;;;18.37;32.35
19811;BME280;10065;49.632;8.346;2023-03-16T12:18:38;100755.72;;;17.46;33.87
19811;BME280;10065;49.632;8.346;2023-03-16T12:21:14;100738.69;;;17.09;34.52
19811;BME280;10065;49.632;8.346;2023-03-16T12:23:49;100739.44;;;16.88;35.19
19811;BME280;10065;49.632;8.346;2023-03-16T12:26:23;100717.53;;;17.00;35.05
19811;BME280;10065;49.632;8.346;2023-03-16T12:28:55;100721.53;;;17.04;35.21
19811;BME280;10065;49.632;8.346;2023-03-16T12:31:34;100729.38;;;17.20;35.62
19811;BME280;10065;49.632;8.346;2023-03-16T12:34:08;100727.63;;;17.27;34.68
19811;BME280;10065;49.632;8.346;2023-03-16T12:37:07;100729.59;;;16.66;35.81
19811;BME280;10065;49.632;8.346;2023-03-16T12:39:50;100722.81;;;16.93;35.64
19811;BME280;10065;49.632;8.346;2023-03-16T12:45:22;100721.94;;;17.81;34.24
19811;BME280;10065;49.632;8.346;2023-03-16T12:47:59;100708.59;;;19.35;31.79
19811;BME280;10065;49.632;8.346;2023-03-16T12:50:31;100700.53;;;19.41;31.59
19811;BME280;10065;49.632;8.346;2023-03-16T12:52:59;100692.81;;;18.91;32.19
19811;BME280;10065;49.632;8.346;2023-03-16T12:55:39;100689.50;;;18.89;32.12
19811;BME280;10065;49.632;8.346;2023-03-16T12:58:11;100684.63;;;19.05;32.30
19811;BME280;10065;49.632;8.346;2023-03-16T13:00:40;100685.81;;;19.37;31.90
19811;BME280;10065;49.632;8.346;2023-03-16T13:03:12;100679.91;;;19.07;31.78
19811;BME280;10065;49.632;8.346;2023-03-16T13:05:44;100689.91;;;18.15;33.21
19811;BME280;10065;49.632;8.346;2023-03-16T13:08:19;100680.72;;;17.52;34.38
19811;BME280;10065;49.632;8.346;2023-03-16T13:11:02;100674.19;;;17.40;34.41
19811;BME280;10065;49.632;8.346;2023-03-16T13:13:32;100673.28;;;17.18;34.61
19811;BME280;10065;49.632;8.346;2023-03-16T13:16:04;100662.88;;;16.42;35.86
19811;BME280;10065;49.632;8.346;2023-03-16T13:18:34;100651.38;;;15.96;36.32
19811;BME280;10065;49.632;8.346;2023-03-16T13:21:14;100658.56;;;15.95;36.22
19811;BME280;10065;49.632;8.346;2023-03-16T13:23:55;100666.69;;;15.56;37.13
19811;BME280;10065;49.632;8.346;2023-03-16T13:26:37;100666.75;;;15.32;37.43